sensor_id;sensor_type;location;lat;lon;timestamp;pressure;altitude;pressure_sealevel;temperature;humidity
39699;BME280;25372;50.582;12.250;2022-10-30T00:07:29;100251.59;;;9.54;100.00
39699;BME280;25372;50.582;12.250;2022-10-30T00:17:50;100235.06;;;9.36;100.00
39699;BME280;25372;50.582;12.250;2022-10-30T00:28:12;100247.31;;;9.20;100.00
39699;BME280;25372;50.582;12.250;2022-10-30T00:38:33;100237.88;;;9.42;100.00
39699;BME280;25372;50.582;12.250;2022-10-30T00:48:57;100225.66;;;9.50;100.00
39699;BME280;25372;50.582;12.250;2022-10-30T00:59:23;100221.34;;;9.24;100.00
39699;BME280;25372;50.582;12.250;2022-10-30T01:09:47;100208.47;;;9.04;100.00
39699;BME280;25372;50.582;12.250;2022-10-30T01:20:26;100192.72;;;8.86;100.00
39699;BME280;25372;50.582;12.250;2022-10-30T01:31:01;100188.59;;;8.76;100.00
39699;BME280;25372;50.582;12.250;2022-10-30T01:41:23;100177.34;;;8.57;100.00
39699;BME280;25372;50.582;12.250;2022-10-30T01:51:53;100183.66;;;8.72;100.00
39699;BME280;25372;50.582;12.250;2022-10-30T02:02:20;100183.44;;;8.58;100.00
39699;BME280;25372;50.582;12.250;2022-10-30T02:12:43;100191.53;;;8.48;100.00
39699;BME280;25372;50.582;12.250;2022-10-30T02:23:06;100181.88;;;8.38;100.00
39699;BME280;25372;50.582;12.250;2022-10-30T02:33:32;100173.41;;;8.18;100.00
39699;BME280;25372;50.582;12.250;2022-10-30T02:43:54;100154.88;;;8.53;100.00
39699;BME280;25372;50.582;12.250;2022-10-30T02:54:15;100112.75;;;8.51;100.00
39699;BME280;25372;50.582;12.250;2022-10-30T03:04:37;100161.84;;;8.95;100.00
39699;BME280;25372;50.582;12.250;2022-10-30T03:14:58;100169.94;;;8.94;100.00
39699;BME280;25372;50.582;12.250;2022-10-30T03:25:20;100160.69;;;9.14;100.00
39699;BME280;25372;50.582;12.250;2022-10-30T03:35:45;100159.38;;;9.10;100.00
39699;BME280;25372;50.582;12.250;2022-10-30T03:46:08;100163.97;;;9.41;100.00
39699;BME280;25372;50.582;12.250;2022-10-30T03:56:30;100160.66;;;9.39;100.00
39699;BME280;25372;50.582;12.250;2022-10-30T04:06:55;100168.94;;;9.36;100.00
39699;BME280;25372;50.582;12.250;2022-10-30T04:17:16;100152.59;;;9.32;100.00
39699;BME280;25372;50.582;12.250;2022-10-30T04:27:40;100141.84;;;9.25;100.00
39699;BME280;25372;50.582;12.250;2022-10-30T04:38:03;100131.44;;;9.24;100.00
39699;BME280;25372;50.582;12.250;2022-10-30T04:48:28;100125.03;;;8.85;100.00
39699;BME280;25372;50.582;12.250;2022-10-30T04:58:49;100107.47;;;8.51;100.00
39699;BME280;25372;50.582;12.250;2022-10-30T05:09:12;100124.19;;;8.68;100.00
39699;BME280;25372;50.582;12.250;2022-10-30T05:19:33;100117.25;;;8.92;100.00
39699;BME280;25372;50.582;12.250;2022-10-30T05:29:56;100113.28;;;9.04;100.00
39699;BME280;25372;50.582;12.250;2022-10-30T05:40:18;100121.53;;;8.93;100.00
39699;BME280;25372;50.582;12.250;2022-10-30T05:50:42;100134.91;;;9.00;100.00
39699;BME280;25372;50.582;12.250;2022-10-30T06:01:15;100121.50;;;9.26;100.00
39699;BME280;25372;50.582;12.250;2022-10-30T06:11:42;100129.41;;;9.42;100.00
39699;BME280;25372;50.582;12.250;2022-10-30T06:22:04;100128.38;;;9.52;100.00
39699;BME280;25372;50.582;12.250;2022-10-30T06:32:37;100138.91;;;9.68;100.00
39699;BME280;25372;50.582;12.250;2022-10-30T06:42:58;100159.91;;;10.18;100.00
39699;BME280;25372;50.582;12.250;2022-10-30T06:53:28;100162.09;;;10.45;100.00
39699;BME280;25372;50.582;12.250;2022-10-30T07:04:05;100159.75;;;10.82;100.00
39699;BME280;25372;50.582;12.250;2022-10-30T07:14:28;100166.81;;;10.90;100.00
39699;BME280;25372;50.582;12.250;2022-10-30T07:25:12;100172.09;;;10.90;100.00
39699;BME280;25372;50.582;12.250;2022-10-30T07:35:46;100154.94;;;11.01;100.00
39699;BME280;25372;50.582;12.250;2022-10-30T07:46:18;100158.25;;;11.56;100.00
39699;BME280;25372;50.582;12.250;2022-10-30T07:56:59;100172.44;;;11.93;100.00
39699;BME280;25372;50.582;12.250;2022-10-30T08:07:56;100158.28;;;12.00;100.00
39699;BME280;25372;50.582;12.250;2022-10-30T08:18:19;100172.38;;;12.01;100.00
39699;BME280;25372;50.582;12.250;2022-10-30T08:28:40;100156.50;;;11.93;100.00
39699;BME280;25372;50.582;12.250;2022-10-30T08:39:04;100153.25;;;12.27;100.00
39699;BME280;25372;50.582;12.250;2022-10-30T08:49:45;100139.25;;;12.55;100.00
39699;BME280;25372;50.582;12.250;2022-10-30T09:00:11;100133.53;;;13.01;100.00
39699;BME280;25372;50.582;12.250;2022-10-30T09:10:56;100129.94;;;13.72;99.43
39699;BME280;25372;50.582;12.250;2022-10-30T09:21:19;100129.06;;;14.00;97.63
39699;BME280;25372;50.582;12.250;2022-10-30T09:31:44;100132.88;;;13.84;98.42
39699;BME280;25372;50.582;12.250;2022-10-30T09:42:41;100146.03;;;13.92;98.26
39699;BME280;25372;50.582;12.250;2022-10-30T09:53:11;100137.16;;;14.34;97.44
39699;BME280;25372;50.582;12.250;2022-10-30T10:03:50;100156.78;;;15.01;92.92
39699;BME280;25372;50.582;12.250;2022-10-30T10:14:38;100149.72;;;16.32;87.36
39699;BME280;25372;50.582;12.250;2022-10-30T10:25:02;100152.78;;;17.50;80.02
39699;BME280;25372;50.582;12.250;2022-10-30T10:35:42;100140.13;;;17.39;80.38
39699;BME280;25372;50.582;12.250;2022-10-30T10:46:25;100138.56;;;17.06;81.34
39699;BME280;25372;50.582;12.250;2022-10-30T10:56:51;100128.41;;;16.83;82.40
39699;BME280;25372;50.582;12.250;2022-10-30T11:07:19;100138.09;;;17.16;81.26
39699;BME280;25372;50.582;12.250;2022-10-30T11:17:44;100126.16;;;17.55;79.13
39699;BME280;25372;50.582;12.250;2022-10-30T11:28:28;100102.75;;;18.00;77.89
39699;BME280;25372;50.582;12.250;2022-10-30T11:38:53;100103.38;;;18.02;77.51
39699;BME280;25372;50.582;12.250;2022-10-30T11:49:32;100110.81;;;18.30;76.14
39699;BME280;25372;50.582;12.250;2022-10-30T11:59:55;100101.53;;;18.44;75.10
39699;BME280;25372;50.582;12.250;2022-10-30T12:10:24;100085.13;;;18.53;76.55
39699;BME280;25372;50.582;12.250;2022-10-30T12:20:49;100086.19;;;18.75;75.27
39699;BME280;25372;50.582;12.250;2022-10-30T12:31:17;100096.31;;;18.92;75.31
39699;BME280;25372;50.582;12.250;2022-10-30T12:41:44;100080.00;;;18.75;75.40
39699;BME280;25372;50.582;12.250;2022-10-30T12:52:13;100074.00;;;18.49;76.59
39699;BME280;25372;50.582;12.250;2022-10-30T13:02:44;100066.81;;;18.73;76.35
39699;BME280;25372;50.582;12.250;2022-10-30T13:13:11;100066.00;;;18.73;76.21
39699;BME280;25372;50.582;12.250;2022-10-30T13:23:41;100061.25;;;18.87;76.91
39699;BME280;25372;50.582;12.250;2022-10-30T13:34:14;100057.81;;;18.56;78.74
39699;BME280;25372;50.582;12.250;2022-10-30T13:44:45;100061.03;;;18.34;79.77
39699;BME280;25372;50.582;12.250;2022-10-30T13:55:18;100052.66;;;18.00;80.49
39699;BME280;25372;50.582;12.250;2022-10-30T14:05:45;100048.66;;;17.72;81.93
39699;BME280;25372;50.582;12.250;2022-10-30T14:16:31;100051.91;;;17.56;83.82
39699;BME280;25372;50.582;12.250;2022-10-30T14:26:54;100054.75;;;17.61;84.23
39699;BME280;25372;50.582;12.250;2022-10-30T14:37:54;100058.22;;;17.06;87.63
39699;BME280;25372;50.582;12.250;2022-10-30T14:48:21;100055.81;;;16.72;89.63
39699;BME280;25372;50.582;12.250;2022-10-30T14:59:08;100063.28;;;16.07;92.36
39699;BME280;25372;50.582;12.250;2022-10-30T15:09:38;100069.88;;;15.45;96.38
39699;BME280;25372;50.582;12.250;2022-10-30T15:20:05;100069.75;;;15.00;99.15
39699;BME280;25372;50.582;12.250;2022-10-30T15:30:27;100071.69;;;14.11;100.00
39699;BME280;25372;50.582;12.250;2022-10-30T15:40:55;100084.06;;;13.70;100.00
39699;BME280;25372;50.582;12.250;2022-10-30T15:51:18;100090.34;;;13.28;100.00
39699;BME280;25372;50.582;12.250;2022-10-30T16:01:44;100068.94;;;12.58;100.00
39699;BME280;25372;50.582;12.250;2022-10-30T16:12:07;100099.00;;;12.36;100.00
39699;BME280;25372;50.582;12.250;2022-10-30T16:22:34;100094.16;;;11.89;100.00
39699;BME280;25372;50.582;12.250;2022-10-30T16:32:57;100108.34;;;11.81;100.00
39699;BME280;25372;50.582;12.250;2022-10-30T16:43:28;100103.31;;;11.56;100.00
39699;BME280;25372;50.582;12.250;2022-10-30T16:53:51;100084.00;;;11.18;100.00
39699;BME280;25372;50.582;12.250;2022-10-30T17:04:14;100104.28;;;11.10;100.00
39699;BME280;25372;50.582;12.250;2022-10-30T17:14:47;100113.97;;;11.03;100.00
39699;BME280;25372;50.582;12.250;2022-10-30T17:25:27;100110.22;;;10.74;100.00
39699;BME280;25372;50.582;12.250;2022-10-30T17:35:50;100125.88;;;10.69;100.00
39699;BME280;25372;50.582;12.250;2022-10-30T17:46:12;100120.56;;;10.46;100.00
39699;BME280;25372;50.582;12.250;2022-10-30T17:56:33;100118.53;;;10.48;100.00
39699;BME280;25372;50.582;12.250;2022-10-30T18:06:55;100120.94;;;10.35;100.00
39699;BME280;25372;50.582;12.250;2022-10-30T18:17:17;100124.91;;;10.30;100.00
39699;BME280;25372;50.582;12.250;2022-10-30T18:27:39;100121.06;;;10.10;100.00
39699;BME280;25372;50.582;12.250;2022-10-30T18:38:01;100131.81;;;10.08;100.00
39699;BME280;25372;50.582;12.250;2022-10-30T18:48:24;100130.06;;;10.01;100.00
39699;BME280;25372;50.582;12.250;2022-10-30T18:58:45;100124.31;;;9.89;100.00
39699;BME280;25372;50.582;12.250;2022-10-30T19:09:07;100123.03;;;9.68;100.00
39699;BME280;25372;50.582;12.250;2022-10-30T19:19:28;100129.31;;;9.75;100.00
39699;BME280;25372;50.582;12.250;2022-10-30T19:29:51;100129.19;;;9.69;100.00
39699;BME280;25372;50.582;12.250;2022-10-30T19:40:19;100139.66;;;9.46;100.00
39699;BME280;25372;50.582;12.250;2022-10-30T19:50:43;100140.97;;;9.41;100.00
39699;BME280;25372;50.582;12.250;2022-10-30T20:01:04;100150.44;;;9.28;100.00
39699;BME280;25372;50.582;12.250;2022-10-30T20:11:27;100148.94;;;9.08;100.00
39699;BME280;25372;50.582;12.250;2022-10-30T20:21:48;100140.53;;;9.05;100.00
39699;BME280;25372;50.582;12.250;2022-10-30T20:32:10;100149.78;;;8.93;100.00
39699;BME280;25372;50.582;12.250;2022-10-30T20:42:32;100152.59;;;8.75;100.00
39699;BME280;25372;50.582;12.250;2022-10-30T20:52:54;100155.06;;;8.68;100.00
39699;BME280;25372;50.582;12.250;2022-10-30T21:03:15;100171.72;;;8.60;100.00
39699;BME280;25372;50.582;12.250;2022-10-30T21:13:38;100173.03;;;8.48;100.00
